Time;durP1;ratioP1;P1;durP2;ratioP2;P2;SDS_P1;SDS_P2;PMS_P1;PMS_P2;Temp;Humidity;BMP_temperature;BMP_pressure;BME280_temperature;BME280_humidity;BME280_pressure;Samples;Min_cycle;Max_cycle;Signal;HPM_P1;HPM_P2
2021/06/08 09:25:56;;;;;;;;;;;;;;;23.99;53.26;101754.56;5061106;28;19927;-66
2021/06/08 09:28:25;;;;;;;;;;;;;;;24.07;52.40;101755.59;5061278;28;19920;-52
2021/06/08 09:31:08;;;;;;;;;;;;;;;24.25;53.00;101758.50;5062447;28;19919;-52
2021/06/08 09:33:38;;;;;;;;;;;;;;;24.38;51.16;101762.81;5069918;28;19920;-51
2021/06/08 09:36:03;;;;;;;;;;;;;;;24.31;50.97;101757.13;5053712;28;20367;-57
2021/06/08 09:40:48;;;;;;;;;;;;;;;24.23;50.25;101749.72;5171670;27;19922;-58
2021/06/08 09:43:14;;;;;;;;;;;;;;;24.20;49.89;101755.34;5132598;27;19916;-58
2021/06/08 09:45:40;;;;;;;;;;;;;;;24.21;49.55;101751.72;5155782;27;19919;-57
2021/06/08 09:48:05;;;;;;;;;;;;;;;24.22;50.49;101752.56;5155911;27;19938;-57
2021/06/08 09:50:31;;;;;;;;;;;;;;;24.28;50.73;101749.34;5157406;27;19926;-57
2021/06/08 10:00:28;;;;;;;;;;;;;;;24.32;50.13;101750.75;5048832;28;19924;-59
2021/06/08 10:02:53;;;;;;;;;;;;;;;24.38;50.03;101747.53;5057080;28;19935;-59
2021/06/08 10:05:19;;;;;;;;;;;;;;;24.32;49.54;101751.59;5052607;28;20537;-59
2021/06/08 10:07:48;;;;;;;;;;;;;;;24.05;49.44;101748.66;5059032;28;20003;-59
2021/06/08 10:10:15;;;;;;;;;;;;;;;24.05;49.66;101743.28;5052326;28;19963;-59
2021/06/08 10:13:00;;;;;;;;;;;;;;;23.93;50.02;101741.66;5059383;28;19928;-59
2021/06/08 10:15:35;;;;;;;;;;;;;;;23.64;49.65;101751.22;5046330;28;19917;-59
2021/06/08 10:18:01;;;;;;;;;;;;;;;23.67;50.21;101738.53;5058681;28;19951;-59
2021/06/08 10:20:29;;;;;;;;;;;;;;;23.69;49.97;101742.78;5052746;28;19959;-59
2021/06/08 10:22:54;;;;;;;;;;;;;;;23.66;50.54;101737.69;5057920;28;19991;-59
2021/06/08 10:25:20;;;;;;;;;;;;;;;23.59;50.85;101740.03;5044686;28;20271;-59
2021/06/08 10:27:45;;;;;;;;;;;;;;;23.63;50.36;101732.56;5043999;28;19947;-59
2021/06/08 10:30:10;;;;;;;;;;;;;;;23.58;50.35;101732.94;5051111;28;19913;-59
2021/06/08 10:32:36;;;;;;;;;;;;;;;23.54;50.29;101742.25;4707566;28;9999740;-59
2021/06/08 10:35:01;;;;;;;;;;;;;;;23.58;50.44;101732.94;5043584;28;19917;-59
2021/06/08 10:37:26;;;;;;;;;;;;;;;23.61;50.13;101735.38;5041978;28;19975;-59
2021/06/08 10:39:54;;;;;;;;;;;;;;;23.60;50.04;101735.53;5053959;28;19921;-59
2021/06/08 10:42:19;;;;;;;;;;;;;;;23.58;49.64;101730.25;5048078;28;20391;-59
2021/06/08 10:44:44;;;;;;;;;;;;;;;23.57;49.92;101728.56;5046087;28;19917;-59
2021/06/08 10:47:21;;;;;;;;;;;;;;;23.64;49.50;101724.38;5041722;28;19917;-60
2021/06/08 10:49:46;;;;;;;;;;;;;;;23.68;49.53;101729.53;5043548;28;19928;-59
2021/06/08 10:52:12;;;;;;;;;;;;;;;23.77;49.66;101731.41;5046856;28;19917;-58
2021/06/08 10:54:41;;;;;;;;;;;;;;;23.75;47.80;101722.63;5046966;28;20391;-59
2021/06/08 10:57:12;;;;;;;;;;;;;;;23.84;48.32;101724.53;5044529;28;19921;-60
2021/06/08 10:59:38;;;;;;;;;;;;;;;23.89;49.10;101711.53;5044053;28;19931;-59
2021/06/08 11:02:04;;;;;;;;;;;;;;;23.90;48.29;101724.00;5050076;28;20126;-59
2021/06/08 11:04:48;;;;;;;;;;;;;;;23.92;49.23;101723.84;5046896;28;19927;-59
2021/06/08 11:07:13;;;;;;;;;;;;;;;23.99;48.86;101725.03;5034172;28;20329;-59
2021/06/08 11:09:39;;;;;;;;;;;;;;;23.84;47.37;101716.47;5032588;28;19966;-59
2021/06/08 11:12:07;;;;;;;;;;;;;;;23.93;48.51;101717.50;5026006;28;20012;-59
2021/06/08 11:14:47;;;;;;;;;;;;;;;23.99;48.51;101711.59;5035936;28;19921;-59
2021/06/08 11:17:13;;;;;;;;;;;;;;;23.87;48.04;101709.00;5015375;28;20284;-59
2021/06/08 11:19:43;;;;;;;;;;;;;;;23.78;47.88;101715.16;5031681;28;19925;-59
2021/06/08 11:22:08;;;;;;;;;;;;;;;23.77;48.77;101716.16;5034408;28;20349;-60
2021/06/08 11:24:34;;;;;;;;;;;;;;;23.75;49.16;101722.63;5029660;28;19928;-62
2021/06/08 11:26:59;;;;;;;;;;;;;;;23.75;48.12;101719.94;5018843;28;19925;-60
2021/06/08 11:29:46;;;;;;;;;;;;;;;23.75;49.07;101715.44;5021925;28;19925;-60
2021/06/08 11:40:43;;;;;;;;;;;;;;;;;;5040205;27;20410;-68
2021/06/08 11:43:09;;;;;;;;;;;;;;;;;;5040260;28;19945;-68
2021/06/08 11:48:27;;;;;;;8.27;2.45;;;;;;;27.29;42.22;101706.38;4956608;27;53743;-60
2021/06/08 11:50:53;;;;;;;8.60;2.53;;;;;;;26.47;43.14;101712.81;4999192;28;20079;-60
2021/06/08 11:53:18;;;;;;;6.88;3.42;;;;;;;25.90;45.04;101706.66;5037415;28;20581;-61
2021/06/08 12:42:48;;;;;;;5.75;2.80;;;;;;;28.20;33.23;101646.44;4746783;27;10001790;-90
2021/06/08 12:45:41;;;;;;;5.28;2.42;;;;;;;27.25;35.93;101634.81;5083252;28;20055;-90
2021/06/08 12:51:04;;;;;;;5.20;2.47;;;;;;;26.34;37.81;101637.66;5582374;22;20053;-85
2021/06/08 12:53:31;;;;;;;8.50;4.35;;;;;;;25.61;38.84;101637.59;5048465;28;20041;-87
2021/06/08 12:57:07;;;;;;;147.93;93.18;;;;;;;26.27;39.29;101635.72;5049694;28;20037;-93
2021/06/08 12:59:16;;;;;;;576.58;387.00;;;;;;;27.50;33.80;101614.22;5044549;28;20096;-85
2021/06/08 13:03:30;;;;;;;1999.90;999.90;;;;;;;42.86;21.09;101592.25;5151245;27;20196;-76
2021/06/08 13:05:56;;;;;;;1999.90;999.90;;;;;;;57.76;11.49;101581.91;5107802;27;20042;-79
2021/06/08 13:08:23;;;;;;;1999.90;999.90;;;;;;;73.01;1.74;101442.31;5106959;27;20019;-80
